Terminal Aerodrome Forecast
Issued by NWS

Home | Current Version | Previous Version | Text Only | Print | Product List | Glossary On
Versions: 1 2 3 4 5 6 7 8 9 10 11 12 13
192
FTAK31 PAJN 152342 RRB
TAFAWG
TAF
PAWG 152342Z 1600/1624 14008KT P6SM VCSH SCT025 OVC035
      TEMPO 1600/1603 -SHRA SCT012 OVC025
     FM161300 13018G25KT 4SM RA BR BKN008 OVC012
     FM162100 15009KT 5SM -RA BR SCT008 BKN012 OVC020
      AMD LTD TO CLD VIS AND WIND 1606/1615=

USA.gov is the U.S. government's official web portal to all federal, state and local government web resources and services.